createdAt,value
2022-10-10T00:04:10.887Z,101274.75
2022-10-10T00:09:12.469Z,101271.16
2022-10-10T00:14:14.104Z,101262.19
2022-10-10T00:19:15.824Z,101256.00
2022-10-10T00:24:17.584Z,101255.50
2022-10-10T00:29:19.140Z,101248.97
2022-10-10T00:34:20.757Z,101241.19
2022-10-10T00:39:22.379Z,101247.59
2022-10-10T00:44:24.035Z,101238.28
2022-10-10T00:49:44.600Z,101237.94
2022-10-10T00:54:46.214Z,101230.88
2022-10-10T00:59:48.237Z,101224.34
2022-10-10T01:04:49.869Z,101213.19
2022-10-10T01:09:54.927Z,101221.25
2022-10-10T01:15:08.370Z,101215.56
2022-10-10T01:20:31.179Z,101209.03
2022-10-10T01:25:59.574Z,101203.88
2022-10-10T01:31:01.282Z,101198.53
2022-10-10T01:36:22.684Z,101200.44
2022-10-10T01:41:43.060Z,101188.22
2022-10-10T01:46:44.775Z,101188.38
2022-10-10T01:52:07.742Z,101174.47
2022-10-10T01:57:39.832Z,101171.72
2022-10-10T02:02:49.754Z,101166.03
2022-10-10T02:08:03.449Z,101155.56
2022-10-10T02:13:06.186Z,101168.78
2022-10-10T02:18:10.711Z,101165.34
2022-10-10T02:23:16.641Z,101153.13
2022-10-10T02:28:29.519Z,101149.34
2022-10-10T02:33:56.568Z,101147.25
2022-10-10T02:38:59.769Z,101141.59
2022-10-10T02:44:01.771Z,101131.09
2022-10-10T02:49:03.524Z,101132.09
2022-10-10T02:54:06.426Z,101125.75
2022-10-10T02:59:08.058Z,101129.19
2022-10-10T03:04:10.182Z,101113.69
2022-10-10T03:09:11.778Z,101108.00
2022-10-10T03:14:13.431Z,101105.28
2022-10-10T03:19:14.994Z,101109.22
2022-10-10T03:24:16.652Z,101109.53
2022-10-10T03:29:18.320Z,101114.56
2022-10-10T03:34:22.867Z,101121.59
2022-10-10T03:39:24.534Z,101119.84
2022-10-10T03:44:26.176Z,101115.38
2022-10-10T03:49:27.944Z,101119.69
2022-10-10T03:54:29.516Z,101115.91
2022-10-10T03:59:31.128Z,101119.13
2022-10-10T04:04:32.831Z,101103.00
2022-10-10T04:09:34.484Z,101101.28
2022-10-10T04:14:36.034Z,101103.34
2022-10-10T04:19:37.662Z,101096.47
2022-10-10T04:24:39.244Z,101091.63
2022-10-10T04:29:40.953Z,101095.28
2022-10-10T04:34:42.646Z,101099.03
2022-10-10T04:39:44.275Z,101093.56
2022-10-10T04:44:45.965Z,101098.16
2022-10-10T04:49:47.615Z,101092.00
2022-10-10T04:54:49.221Z,101099.19
2022-10-10T04:59:50.851Z,101112.94
2022-10-10T05:04:52.519Z,101116.34
2022-10-10T05:09:54.271Z,101110.84
2022-10-10T05:14:55.907Z,101113.97
2022-10-10T05:19:57.507Z,101118.72
2022-10-10T05:25:00.191Z,101123.56
2022-10-10T05:30:01.892Z,101125.41
2022-10-10T05:35:20.752Z,101119.78
2022-10-10T05:40:23.459Z,101123.72
2022-10-10T05:45:26.207Z,101114.25
2022-10-10T05:50:34.269Z,101120.75
2022-10-10T05:55:36.707Z,101119.38
2022-10-10T06:00:38.295Z,101124.88
2022-10-10T06:05:41.322Z,101123.16
2022-10-10T06:10:45.802Z,101127.94
2022-10-10T06:15:52.053Z,101124.88
2022-10-10T06:20:53.653Z,101128.66
2022-10-10T06:25:55.330Z,101127.81
2022-10-10T06:31:02.030Z,101128.81
2022-10-10T06:36:06.318Z,101124.13
2022-10-10T06:41:09.323Z,101131.44
2022-10-10T06:46:11.836Z,101138.34
2022-10-10T06:51:15.540Z,101137.00
2022-10-10T06:56:27.415Z,101138.09
2022-10-10T07:01:29.640Z,101137.22
2022-10-10T07:06:34.813Z,101140.81
2022-10-10T07:11:36.832Z,101155.56
2022-10-10T07:16:38.503Z,101149.59
2022-10-10T07:21:40.112Z,101155.59
2022-10-10T07:26:41.766Z,101142.38
2022-10-10T07:31:43.432Z,101148.63
2022-10-10T07:36:49.052Z,101149.53
2022-10-10T07:41:52.031Z,101152.28
2022-10-10T07:46:53.914Z,101146.44
2022-10-10T07:51:58.987Z,101153.66
2022-10-10T07:57:02.985Z,101168.63
2022-10-10T08:02:05.087Z,101168.63
2022-10-10T08:07:07.271Z,101165.38
2022-10-10T08:12:08.883Z,101176.00
2022-10-10T08:17:10.750Z,101188.75
2022-10-10T08:22:13.028Z,101189.44
2022-10-10T08:27:17.610Z,101198.03
2022-10-10T08:32:19.251Z,101203.88
2022-10-10T08:37:21.665Z,101205.06
2022-10-10T08:42:33.093Z,101191.47
2022-10-10T08:47:46.952Z,101196.94
2022-10-10T08:53:01.023Z,101205.72
2022-10-10T08:58:20.541Z,101205.56
2022-10-10T09:03:48.808Z,101211.38
2022-10-10T09:08:56.232Z,101213.00
2022-10-10T09:14:33.649Z,101217.47
2022-10-10T09:19:47.169Z,101224.16
2022-10-10T09:25:18.473Z,101229.94
2022-10-10T09:30:21.313Z,101224.22
2022-10-10T09:35:26.336Z,101228.94
2022-10-10T09:40:36.418Z,101225.41
2022-10-10T09:45:42.475Z,101228.78
2022-10-10T09:50:44.084Z,101238.00
2022-10-10T09:55:47.972Z,101253.53
2022-10-10T10:00:50.002Z,101261.44
2022-10-10T10:05:55.245Z,101272.81
2022-10-10T10:10:58.475Z,101283.13
2022-10-10T10:16:18.679Z,101289.78
2022-10-10T10:21:23.803Z,101292.97
2022-10-10T10:26:42.455Z,101303.28
2022-10-10T10:32:05.109Z,101302.22
2022-10-10T10:37:17.860Z,101314.91
2022-10-10T10:42:22.259Z,101320.38
2022-10-10T10:47:42.358Z,101327.03
2022-10-10T10:52:47.024Z,101332.72
2022-10-10T10:58:22.463Z,101331.28
2022-10-10T11:05:15.976Z,101333.16
2022-10-10T11:09:01.713Z,101339.94
2022-10-10T11:14:18.523Z,101348.63
2022-10-10T11:19:47.619Z,101342.69
2022-10-10T11:24:54.287Z,101344.63
2022-10-10T11:30:03.451Z,101351.84
2022-10-10T11:35:14.686Z,101356.34
2022-10-10T11:41:13.201Z,101359.28
2022-10-10T11:46:24.788Z,101351.56
2022-10-10T11:51:48.141Z,101362.91
2022-10-10T11:56:53.808Z,101367.69
2022-10-10T12:07:25.618Z,101386.56
2022-10-10T12:12:37.757Z,101400.38
2022-10-10T12:17:44.017Z,101417.34
2022-10-10T12:22:46.870Z,101432.81
2022-10-10T12:28:06.177Z,101447.75
2022-10-10T12:33:20.126Z,101459.13
2022-10-10T12:38:24.091Z,101457.50
2022-10-10T12:43:46.041Z,101473.47
2022-10-10T12:48:58.953Z,101489.47
2022-10-10T12:54:04.457Z,101506.72
2022-10-10T12:59:17.036Z,101508.94
2022-10-10T13:04:19.403Z,101509.38
2022-10-10T13:09:24.651Z,101522.19
2022-10-10T13:14:37.240Z,101531.44
2022-10-10T13:19:42.011Z,101529.34
2022-10-10T13:24:45.287Z,101551.41
2022-10-10T13:29:47.769Z,101550.00
2022-10-10T13:34:53.899Z,101548.84
2022-10-10T13:39:55.876Z,101552.22
2022-10-10T13:45:00.396Z,101577.25
2022-10-10T13:50:02.415Z,101591.53
2022-10-10T13:55:16.210Z,101589.84
2022-10-10T14:00:20.360Z,101603.63
2022-10-10T14:05:30.361Z,101611.28
2022-10-10T14:10:36.118Z,101625.03
2022-10-10T14:15:40.834Z,101628.47
2022-10-10T14:20:42.694Z,101636.59
2022-10-10T14:25:47.025Z,101641.50
2022-10-10T14:30:48.679Z,101652.94
2022-10-10T14:35:51.953Z,101663.47
2022-10-10T14:40:54.642Z,101681.88
2022-10-10T14:45:56.485Z,101688.28
2022-10-10T14:50:58.122Z,101698.22
2022-10-10T14:55:59.741Z,101692.97
2022-10-10T15:01:01.730Z,101698.13
2022-10-10T15:06:03.994Z,101712.72
2022-10-10T15:11:06.038Z,101720.47
2022-10-10T15:16:07.827Z,101724.34
2022-10-10T15:21:13.309Z,101731.41
2022-10-10T15:26:15.007Z,101736.56
2022-10-10T15:31:16.756Z,101750.97
2022-10-10T15:36:19.286Z,101755.63
2022-10-10T15:41:21.152Z,101761.00
2022-10-10T15:46:26.519Z,101766.91
2022-10-10T15:51:29.280Z,101774.63
2022-10-10T15:56:31.059Z,101786.56
2022-10-10T16:01:37.101Z,101785.72
2022-10-10T16:06:39.807Z,101797.50
2022-10-10T16:11:41.404Z,101805.91
2022-10-10T16:16:43.006Z,101814.94
2022-10-10T16:21:44.907Z,101829.16
2022-10-10T16:26:46.554Z,101841.09
2022-10-10T16:31:48.286Z,101846.44
2022-10-10T16:36:49.914Z,101855.13
2022-10-10T16:41:51.687Z,101872.38
2022-10-10T16:47:07.172Z,101875.00
2022-10-10T16:52:09.009Z,101884.28
2022-10-10T16:57:12.060Z,101890.50
2022-10-10T17:02:14.803Z,101894.84
2022-10-10T17:07:16.585Z,101905.75
2022-10-10T17:12:19.568Z,101914.06
2022-10-10T17:17:22.600Z,101920.44
2022-10-10T17:22:30.524Z,101930.31
2022-10-10T17:27:35.105Z,101942.41
2022-10-10T17:32:37.303Z,101948.25
2022-10-10T17:37:39.108Z,101960.38
2022-10-10T17:42:42.098Z,101961.22
2022-10-10T17:47:43.833Z,101969.19
2022-10-10T17:52:45.769Z,101972.66
2022-10-10T17:57:49.358Z,101986.97
2022-10-10T18:02:51.215Z,101990.63
2022-10-10T18:07:54.275Z,101998.91
2022-10-10T18:12:57.371Z,102021.00
2022-10-10T18:17:59.167Z,102010.13
2022-10-10T18:23:00.813Z,102021.00
2022-10-10T18:28:02.388Z,102029.31
2022-10-10T18:33:04.180Z,102033.25
2022-10-10T18:38:06.040Z,102038.28
2022-10-10T18:43:07.711Z,102044.50
2022-10-10T18:48:09.534Z,102044.72
2022-10-10T18:53:11.225Z,102063.38
2022-10-10T18:58:12.954Z,102064.03
2022-10-10T19:03:16.118Z,102077.16
2022-10-10T19:08:18.126Z,102071.13
2022-10-10T19:13:20.241Z,102083.25
2022-10-10T19:18:22.898Z,102090.47
2022-10-10T19:23:25.669Z,102096.84
2022-10-10T19:28:27.477Z,102101.19
2022-10-10T19:33:35.938Z,102112.94
2022-10-10T19:38:41.364Z,102120.84
2022-10-10T19:43:46.930Z,102134.34
2022-10-10T19:48:50.238Z,102136.38
2022-10-10T19:53:51.930Z,102142.53
2022-10-10T19:58:55.975Z,102147.03
2022-10-10T20:03:58.531Z,102144.97
2022-10-10T20:09:00.409Z,102155.31
2022-10-10T20:14:02.044Z,102158.41
2022-10-10T20:19:03.915Z,102173.56
2022-10-10T20:24:09.388Z,102176.69
2022-10-10T20:29:11.037Z,102179.59
2022-10-10T20:34:12.663Z,102182.22
2022-10-10T20:39:14.446Z,102180.78
2022-10-10T20:44:16.188Z,102179.59
2022-10-10T20:49:19.976Z,102184.19
2022-10-10T20:54:24.262Z,102195.56
2022-10-10T20:59:25.959Z,102205.94
2022-10-10T21:04:27.803Z,102198.16
2022-10-10T21:09:29.440Z,102214.38
2022-10-10T21:14:31.055Z,102221.41
2022-10-10T21:19:33.246Z,102227.72
2022-10-10T21:24:34.880Z,102231.41
2022-10-10T21:29:36.475Z,102233.94
2022-10-10T21:34:38.377Z,102249.25
2022-10-10T21:39:40.096Z,102248.56
2022-10-10T21:44:42.014Z,102256.28
2022-10-10T21:49:43.684Z,102267.97
2022-10-10T21:54:45.284Z,102257.81
2022-10-10T21:59:47.016Z,102266.81
2022-10-10T22:04:52.108Z,102260.88
2022-10-10T22:09:53.782Z,102272.41
2022-10-10T22:14:55.536Z,102280.28
2022-10-10T22:19:57.156Z,102281.06
2022-10-10T22:24:58.893Z,102275.72
2022-10-10T22:30:00.579Z,102277.91
2022-10-10T22:35:02.531Z,102287.53
2022-10-10T22:40:04.685Z,102293.19
2022-10-10T22:45:06.744Z,102291.78
2022-10-10T22:50:09.354Z,102301.25
2022-10-10T22:55:15.739Z,102300.97
2022-10-10T23:00:19.934Z,102303.81
2022-10-10T23:05:21.704Z,102307.19
2022-10-10T23:10:23.373Z,102314.03
2022-10-10T23:15:24.986Z,102310.13
2022-10-10T23:20:26.756Z,102316.56
2022-10-10T23:25:28.927Z,102318.59
2022-10-10T23:30:30.592Z,102320.25
2022-10-10T23:35:32.686Z,102313.28
2022-10-10T23:40:34.400Z,102314.56
2022-10-10T23:45:39.611Z,102323.44
2022-10-10T23:50:41.453Z,102316.06
2022-10-10T23:55:43.187Z,102317.84
